sensor_id;sensor_type;location;lat;lon;timestamp;pressure;altitude;pressure_sealevel;temperature;humidity
76598;BME280;65486;53.144;18.134;2023-08-17T00:00:58;101518.94;;;19.57;64.93
76598;BME280;65486;53.144;18.134;2023-08-17T00:03:36;101518.71;;;19.52;64.93
76598;BME280;65486;53.144;18.134;2023-08-17T00:06:06;101517.02;;;19.49;65.06
76598;BME280;65486;53.144;18.134;2023-08-17T00:08:33;101516.58;;;19.46;65.17
76598;BME280;65486;53.144;18.134;2023-08-17T00:11:00;101519.30;;;19.42;65.19
76598;BME280;65486;53.144;18.134;2023-08-17T00:13:29;101520.33;;;19.38;65.34
76598;BME280;65486;53.144;18.134;2023-08-17T00:15:56;101515.65;;;19.34;65.35
76598;BME280;65486;53.144;18.134;2023-08-17T00:18:23;101515.82;;;19.31;65.34
76598;BME280;65486;53.144;18.134;2023-08-17T00:20:52;101526.54;;;19.29;65.47
76598;BME280;65486;53.144;18.134;2023-08-17T00:23:18;101526.42;;;19.29;65.39
76598;BME280;65486;53.144;18.134;2023-08-17T00:25:47;101523.65;;;19.25;65.56
76598;BME280;65486;53.144;18.134;2023-08-17T00:28:14;101524.08;;;19.23;65.49
76598;BME280;65486;53.144;18.134;2023-08-17T00:30:40;101517.46;;;19.22;65.50
76598;BME280;65486;53.144;18.134;2023-08-17T00:33:09;101513.69;;;19.21;65.49
76598;BME280;65486;53.144;18.134;2023-08-17T00:35:45;101514.12;;;19.19;65.41
76598;BME280;65486;53.144;18.134;2023-08-17T00:38:19;101518.89;;;19.21;65.56
76598;BME280;65486;53.144;18.134;2023-08-17T00:40:46;101518.80;;;19.21;65.68
76598;BME280;65486;53.144;18.134;2023-08-17T00:43:13;101516.79;;;19.22;65.62
76598;BME280;65486;53.144;18.134;2023-08-17T00:45:45;101515.06;;;19.22;65.64
76598;BME280;65486;53.144;18.134;2023-08-17T00:48:22;101518.95;;;19.21;65.78
76598;BME280;65486;53.144;18.134;2023-08-17T00:50:52;101524.89;;;19.22;65.81
76598;BME280;65486;53.144;18.134;2023-08-17T00:53:20;101524.08;;;19.20;65.88
76598;BME280;65486;53.144;18.134;2023-08-17T00:55:47;101521.27;;;19.16;66.21
76598;BME280;65486;53.144;18.134;2023-08-17T00:58:14;101513.62;;;19.14;66.16
76598;BME280;65486;53.144;18.134;2023-08-17T01:00:41;101514.66;;;19.13;65.94
76598;BME280;65486;53.144;18.134;2023-08-17T01:03:09;101517.59;;;19.14;66.17
76598;BME280;65486;53.144;18.134;2023-08-17T01:05:35;101517.13;;;19.12;66.12
76598;BME280;65486;53.144;18.134;2023-08-17T01:08:08;101522.38;;;19.12;66.17
76598;BME280;65486;53.144;18.134;2023-08-17T01:10:51;101527.52;;;19.11;66.20
76598;BME280;65486;53.144;18.134;2023-08-17T01:13:25;101532.94;;;19.11;66.08
76598;BME280;65486;53.144;18.134;2023-08-17T01:15:58;101530.37;;;19.11;66.25
76598;BME280;65486;53.144;18.134;2023-08-17T01:18:36;101531.41;;;19.11;66.28
76598;BME280;65486;53.144;18.134;2023-08-17T01:21:09;101532.77;;;19.11;66.38
76598;BME280;65486;53.144;18.134;2023-08-17T01:23:36;101528.70;;;19.13;66.19
76598;BME280;65486;53.144;18.134;2023-08-17T01:26:04;101529.10;;;19.14;66.25
76598;BME280;65486;53.144;18.134;2023-08-17T01:28:31;101527.25;;;19.14;66.35
76598;BME280;65486;53.144;18.134;2023-08-17T01:31:58;101520.61;;;19.15;66.24
76598;BME280;65486;53.144;18.134;2023-08-17T01:34:27;101515.00;;;19.13;66.39
76598;BME280;65486;53.144;18.134;2023-08-17T01:37:00;101516.48;;;19.14;66.28
76598;BME280;65486;53.144;18.134;2023-08-17T01:39:37;101514.67;;;19.13;66.13
76598;BME280;65486;53.144;18.134;2023-08-17T01:42:07;101520.77;;;19.13;66.22
76598;BME280;65486;53.144;18.134;2023-08-17T01:44:35;101522.16;;;19.12;66.02
76598;BME280;65486;53.144;18.134;2023-08-17T01:47:02;101530.78;;;19.13;65.85
76598;BME280;65486;53.144;18.134;2023-08-17T01:49:30;101533.71;;;19.11;65.91
76598;BME280;65486;53.144;18.134;2023-08-17T01:51:57;101528.04;;;19.10;65.79
76598;BME280;65486;53.144;18.134;2023-08-17T01:54:23;101514.45;;;19.08;65.76
76598;BME280;65486;53.144;18.134;2023-08-17T01:56:51;101508.33;;;19.06;65.87
76598;BME280;65486;53.144;18.134;2023-08-17T01:59:17;101501.03;;;19.04;65.99
76598;BME280;65486;53.144;18.134;2023-08-17T02:01:44;101497.77;;;19.01;66.11
76598;BME280;65486;53.144;18.134;2023-08-17T02:04:10;101496.07;;;19.00;66.16
76598;BME280;65486;53.144;18.134;2023-08-17T02:06:38;101495.08;;;19.01;66.47
76598;BME280;65486;53.144;18.134;2023-08-17T02:09:05;101482.79;;;18.93;66.70
76598;BME280;65486;53.144;18.134;2023-08-17T02:11:33;101496.38;;;18.98;66.62
76598;BME280;65486;53.144;18.134;2023-08-17T02:14:00;101492.02;;;18.89;66.88
76598;BME280;65486;53.144;18.134;2023-08-17T02:16:26;101517.23;;;18.93;66.86
76598;BME280;65486;53.144;18.134;2023-08-17T02:18:53;101529.04;;;18.91;67.25
76598;BME280;65486;53.144;18.134;2023-08-17T02:21:21;101537.77;;;18.87;67.58
76598;BME280;65486;53.144;18.134;2023-08-17T02:23:47;101519.33;;;18.83;67.86
76598;BME280;65486;53.144;18.134;2023-08-17T02:26:13;101511.21;;;18.82;68.37
76598;BME280;65486;53.144;18.134;2023-08-17T02:28:40;101509.81;;;18.81;68.53
76598;BME280;65486;53.144;18.134;2023-08-17T02:31:06;101507.96;;;18.81;68.52
76598;BME280;65486;53.144;18.134;2023-08-17T02:33:33;101495.67;;;18.82;68.61
76598;BME280;65486;53.144;18.134;2023-08-17T02:36:00;101489.02;;;18.81;68.96
76598;BME280;65486;53.144;18.134;2023-08-17T02:38:27;101482.04;;;18.82;68.77
76598;BME280;65486;53.144;18.134;2023-08-17T02:40:55;101481.73;;;18.80;68.57
76598;BME280;65486;53.144;18.134;2023-08-17T02:43:22;101484.80;;;18.81;68.62
76598;BME280;65486;53.144;18.134;2023-08-17T02:45:50;101483.88;;;18.82;68.59
76598;BME280;65486;53.144;18.134;2023-08-17T02:48:17;101481.11;;;18.80;68.52
76598;BME280;65486;53.144;18.134;2023-08-17T02:50:43;101490.35;;;18.81;68.59
76598;BME280;65486;53.144;18.134;2023-08-17T02:53:10;101494.75;;;18.80;68.31
76598;BME280;65486;53.144;18.134;2023-08-17T02:55:36;101498.23;;;18.80;68.52
76598;BME280;65486;53.144;18.134;2023-08-17T02:58:03;101498.78;;;18.81;68.41
76598;BME280;65486;53.144;18.134;2023-08-17T03:00:30;101501.70;;;18.78;68.31
76598;BME280;65486;53.144;18.134;2023-08-17T03:02:58;101504.25;;;18.76;68.32
76598;BME280;65486;53.144;18.134;2023-08-17T03:05:25;101496.80;;;18.74;68.29
76598;BME280;65486;53.144;18.134;2023-08-17T03:07:53;101494.35;;;18.75;68.38
76598;BME280;65486;53.144;18.134;2023-08-17T03:10:19;101490.41;;;18.72;68.27
76598;BME280;65486;53.144;18.134;2023-08-17T03:12:45;101486.13;;;18.70;68.23
76598;BME280;65486;53.144;18.134;2023-08-17T03:15:12;101485.95;;;18.69;68.12
76598;BME280;65486;53.144;18.134;2023-08-17T03:17:44;101485.66;;;18.68;67.91
76598;BME280;65486;53.144;18.134;2023-08-17T03:20:10;101463.98;;;18.56;67.82
76598;BME280;65486;53.144;18.134;2023-08-17T03:22:38;101487.94;;;18.68;67.93
76598;BME280;65486;53.144;18.134;2023-08-17T03:25:05;101488.60;;;18.68;68.00
76598;BME280;65486;53.144;18.134;2023-08-17T03:27:38;101490.29;;;18.67;67.90
76598;BME280;65486;53.144;18.134;2023-08-17T03:30:06;101497.55;;;18.67;67.80
76598;BME280;65486;53.144;18.134;2023-08-17T03:32:33;101498.98;;;18.66;67.87
76598;BME280;65486;53.144;18.134;2023-08-17T03:35:01;101499.36;;;18.65;68.01
76598;BME280;65486;53.144;18.134;2023-08-17T03:37:27;101502.21;;;18.64;68.00
76598;BME280;65486;53.144;18.134;2023-08-17T03:39:54;101500.29;;;18.64;67.90
76598;BME280;65486;53.144;18.134;2023-08-17T03:42:21;101502.84;;;18.62;67.86
76598;BME280;65486;53.144;18.134;2023-08-17T03:44:49;101509.43;;;18.61;67.82
76598;BME280;65486;53.144;18.134;2023-08-17T03:47:18;101521.03;;;18.60;67.78
76598;BME280;65486;53.144;18.134;2023-08-17T03:49:45;101529.23;;;18.60;67.74
76598;BME280;65486;53.144;18.134;2023-08-17T03:52:17;101540.20;;;18.60;67.65
76598;BME280;65486;53.144;18.134;2023-08-17T03:54:45;101543.23;;;18.62;67.71
76598;BME280;65486;53.144;18.134;2023-08-17T03:57:12;101543.29;;;18.62;67.59
76598;BME280;65486;53.144;18.134;2023-08-17T03:59:38;101546.66;;;18.64;67.53
76598;BME280;65486;53.144;18.134;2023-08-17T04:02:04;101555.42;;;18.63;67.54
76598;BME280;65486;53.144;18.134;2023-08-17T04:04:31;101569.20;;;18.61;67.37
76598;BME280;65486;53.144;18.134;2023-08-17T04:07:03;101583.13;;;18.62;67.54
76598;BME280;65486;53.144;18.134;2023-08-17T04:09:30;101589.50;;;18.61;67.67
76598;BME280;65486;53.144;18.134;2023-08-17T04:12:02;101587.15;;;18.62;67.63
76598;BME280;65486;53.144;18.134;2023-08-17T04:14:39;101591.55;;;18.65;67.68
76598;BME280;65486;53.144;18.134;2023-08-17T04:17:06;101588.61;;;18.65;67.63
76598;BME280;65486;53.144;18.134;2023-08-17T04:19:41;101584.60;;;18.67;67.68
76598;BME280;65486;53.144;18.134;2023-08-17T04:22:08;101582.45;;;18.69;67.75
76598;BME280;65486;53.144;18.134;2023-08-17T04:24:37;101579.36;;;18.72;67.80
76598;BME280;65486;53.144;18.134;2023-08-17T04:27:05;101574.85;;;18.73;67.92
76598;BME280;65486;53.144;18.134;2023-08-17T04:29:32;101574.73;;;18.77;68.19
76598;BME280;65486;53.144;18.134;2023-08-17T04:32:02;101575.09;;;18.78;68.37
76598;BME280;65486;53.144;18.134;2023-08-17T04:34:32;101582.04;;;18.80;68.76
76598;BME280;65486;53.144;18.134;2023-08-17T04:37:05;101581.42;;;18.80;69.06
76598;BME280;65486;53.144;18.134;2023-08-17T04:39:31;101581.58;;;18.81;69.27
76598;BME280;65486;53.144;18.134;2023-08-17T04:41:58;101589.45;;;18.83;69.87
76598;BME280;65486;53.144;18.134;2023-08-17T04:44:29;101595.08;;;18.81;69.88
76598;BME280;65486;53.144;18.134;2023-08-17T04:47:01;101596.95;;;18.79;70.04
76598;BME280;65486;53.144;18.134;2023-08-17T04:49:28;101595.70;;;18.77;70.05
76598;BME280;65486;53.144;18.134;2023-08-17T04:51:56;101600.05;;;18.77;70.17
76598;BME280;65486;53.144;18.134;2023-08-17T04:54:24;101600.98;;;18.75;70.25
76598;BME280;65486;53.144;18.134;2023-08-17T04:56:51;101598.22;;;18.74;70.30
76598;BME280;65486;53.144;18.134;2023-08-17T04:59:18;101595.34;;;18.72;70.67
76598;BME280;65486;53.144;18.134;2023-08-17T05:01:46;101603.75;;;18.77;71.44
76598;BME280;65486;53.144;18.134;2023-08-17T05:04:13;101603.15;;;18.79;71.58
76598;BME280;65486;53.144;18.134;2023-08-17T05:06:39;101605.50;;;18.79;72.75
76598;BME280;65486;53.144;18.134;2023-08-17T05:09:06;101600.97;;;18.79;73.14
76598;BME280;65486;53.144;18.134;2023-08-17T05:11:34;101599.16;;;18.77;73.55
76598;BME280;65486;53.144;18.134;2023-08-17T05:14:01;101589.96;;;18.79;74.80
76598;BME280;65486;53.144;18.134;2023-08-17T05:16:30;101588.98;;;18.77;75.26
76598;BME280;65486;53.144;18.134;2023-08-17T05:19:01;101595.33;;;18.71;75.51
76598;BME280;65486;53.144;18.134;2023-08-17T05:21:27;101597.08;;;18.68;75.12
76598;BME280;65486;53.144;18.134;2023-08-17T05:23:57;101597.61;;;18.69;75.39
76598;BME280;65486;53.144;18.134;2023-08-17T05:26:25;101585.35;;;18.68;75.45
76598;BME280;65486;53.144;18.134;2023-08-17T05:28:51;101582.42;;;18.79;75.56
76598;BME280;65486;53.144;18.134;2023-08-17T05:31:19;101570.11;;;18.94;76.43
76598;BME280;65486;53.144;18.134;2023-08-17T05:33:48;101566.81;;;19.12;75.36
76598;BME280;65486;53.144;18.134;2023-08-17T05:36:15;101559.05;;;19.68;74.28
76598;BME280;65486;53.144;18.134;2023-08-17T05:38:41;101556.63;;;19.93;73.49
76598;BME280;65486;53.144;18.134;2023-08-17T05:41:08;101559.74;;;19.86;73.43
76598;BME280;65486;53.144;18.134;2023-08-17T05:43:34;101569.60;;;19.76;73.27
76598;BME280;65486;53.144;18.134;2023-08-17T05:46:02;101577.20;;;19.63;73.56
76598;BME280;65486;53.144;18.134;2023-08-17T05:48:29;101581.27;;;19.53;74.01
76598;BME280;65486;53.144;18.134;2023-08-17T05:50:56;101562.41;;;19.39;73.71
76598;BME280;65486;53.144;18.134;2023-08-17T05:53:22;101563.27;;;19.32;74.09
76598;BME280;65486;53.144;18.134;2023-08-17T05:55:49;101559.43;;;19.20;73.11
76598;BME280;65486;53.144;18.134;2023-08-17T05:58:19;101558.09;;;19.10;73.72
76598;BME280;65486;53.144;18.134;2023-08-17T06:00:46;101555.77;;;19.08;73.55
76598;BME280;65486;53.144;18.134;2023-08-17T06:03:17;101558.45;;;19.07;73.38
76598;BME280;65486;53.144;18.134;2023-08-17T06:05:43;101561.17;;;19.06;73.22
76598;BME280;65486;53.144;18.134;2023-08-17T06:08:12;101569.34;;;19.11;73.08
76598;BME280;65486;53.144;18.134;2023-08-17T06:10:38;101586.45;;;19.16;72.67
76598;BME280;65486;53.144;18.134;2023-08-17T06:13:05;101588.97;;;19.25;72.57
76598;BME280;65486;53.144;18.134;2023-08-17T06:15:31;101597.33;;;19.31;72.66
76598;BME280;65486;53.144;18.134;2023-08-17T06:17:57;101603.33;;;19.54;72.64
76598;BME280;65486;53.144;18.134;2023-08-17T06:20:25;101606.05;;;19.83;71.95
76598;BME280;65486;53.144;18.134;2023-08-17T06:22:51;101617.64;;;20.21;71.38
76598;BME280;65486;53.144;18.134;2023-08-17T06:25:19;101621.76;;;20.70;71.22
76598;BME280;65486;53.144;18.134;2023-08-17T06:27:48;101619.17;;;21.05;69.39
76598;BME280;65486;53.144;18.134;2023-08-17T06:30:15;101613.79;;;21.33;69.05
76598;BME280;65486;53.144;18.134;2023-08-17T06:32:43;101610.71;;;22.33;68.64
76598;BME280;65486;53.144;18.134;2023-08-17T06:35:10;101609.94;;;22.99;67.62
76598;BME280;65486;53.144;18.134;2023-08-17T06:37:36;101609.55;;;23.33;66.72
76598;BME280;65486;53.144;18.134;2023-08-17T06:40:06;101607.75;;;23.31;66.22
76598;BME280;65486;53.144;18.134;2023-08-17T06:42:33;101599.48;;;22.99;66.76
76598;BME280;65486;53.144;18.134;2023-08-17T06:45:03;101600.20;;;22.68;66.76
76598;BME280;65486;53.144;18.134;2023-08-17T06:47:30;101601.17;;;22.38;66.51
76598;BME280;65486;53.144;18.134;2023-08-17T06:49:57;101602.46;;;22.23;66.47
76598;BME280;65486;53.144;18.134;2023-08-17T06:52:24;101604.89;;;22.21;66.00
76598;BME280;65486;53.144;18.134;2023-08-17T06:54:53;101609.72;;;22.30;63.09
76598;BME280;65486;53.144;18.134;2023-08-17T06:57:22;101614.09;;;22.53;61.18
76598;BME280;65486;53.144;18.134;2023-08-17T06:59:48;101618.77;;;22.79;61.24
76598;BME280;65486;53.144;18.134;2023-08-17T07:02:15;101617.80;;;22.80;61.83
76598;BME280;65486;53.144;18.134;2023-08-17T07:04:43;101614.38;;;22.69;62.38
76598;BME280;65486;53.144;18.134;2023-08-17T07:07:09;101611.79;;;22.55;62.71
76598;BME280;65486;53.144;18.134;2023-08-17T07:09:38;101609.71;;;22.39;61.90
76598;BME280;65486;53.144;18.134;2023-08-17T07:12:08;101604.83;;;22.24;62.30
76598;BME280;65486;53.144;18.134;2023-08-17T07:14:34;101601.16;;;22.15;62.65
76598;BME280;65486;53.144;18.134;2023-08-17T07:17:01;101602.80;;;22.06;62.30
76598;BME280;65486;53.144;18.134;2023-08-17T07:19:27;101603.67;;;22.02;61.51
76598;BME280;65486;53.144;18.134;2023-08-17T07:21:55;101614.46;;;22.01;61.38
76598;BME280;65486;53.144;18.134;2023-08-17T07:24:23;101611.80;;;21.93;61.56
76598;BME280;65486;53.144;18.134;2023-08-17T07:26:50;101618.18;;;21.84;62.33
76598;BME280;65486;53.144;18.134;2023-08-17T07:29:19;101622.33;;;21.83;62.81
76598;BME280;65486;53.144;18.134;2023-08-17T07:31:47;101621.69;;;21.79;62.31
76598;BME280;65486;53.144;18.134;2023-08-17T07:34:15;101624.20;;;21.73;62.52
76598;BME280;65486;53.144;18.134;2023-08-17T07:36:44;101626.77;;;21.65;62.18
76598;BME280;65486;53.144;18.134;2023-08-17T07:39:12;101625.73;;;21.55;62.29
76598;BME280;65486;53.144;18.134;2023-08-17T07:41:40;101624.73;;;21.46;62.13
76598;BME280;65486;53.144;18.134;2023-08-17T07:44:10;101622.77;;;21.46;62.16
76598;BME280;65486;53.144;18.134;2023-08-17T07:46:40;101620.05;;;21.56;62.30
76598;BME280;65486;53.144;18.134;2023-08-17T07:49:06;101617.11;;;21.65;62.56
76598;BME280;65486;53.144;18.134;2023-08-17T07:51:33;101614.44;;;21.74;61.96
76598;BME280;65486;53.144;18.134;2023-08-17T07:54:01;101608.14;;;21.73;61.30
76598;BME280;65486;53.144;18.134;2023-08-17T07:56:29;101600.95;;;21.64;60.83
76598;BME280;65486;53.144;18.134;2023-08-17T07:58:57;101595.14;;;21.62;60.92
76598;BME280;65486;53.144;18.134;2023-08-17T08:01:23;101594.83;;;21.72;61.25
76598;BME280;65486;53.144;18.134;2023-08-17T08:03:53;101596.61;;;21.84;60.99
76598;BME280;65486;53.144;18.134;2023-08-17T08:06:21;101602.99;;;21.95;61.44
76598;BME280;65486;53.144;18.134;2023-08-17T08:08:47;101611.95;;;22.09;60.72
76598;BME280;65486;53.144;18.134;2023-08-17T08:11:17;101605.77;;;22.14;59.47
76598;BME280;65486;53.144;18.134;2023-08-17T08:13:44;101601.50;;;22.15;59.77
76598;BME280;65486;53.144;18.134;2023-08-17T08:16:14;101603.94;;;22.29;59.70
76598;BME280;65486;53.144;18.134;2023-08-17T08:18:41;101609.14;;;22.67;58.92
76598;BME280;65486;53.144;18.134;2023-08-17T08:21:07;101618.04;;;23.70;57.45
76598;BME280;65486;53.144;18.134;2023-08-17T08:23:41;101629.83;;;24.84;55.91
76598;BME280;65486;53.144;18.134;2023-08-17T08:26:08;101640.98;;;26.08;54.21
76598;BME280;65486;53.144;18.134;2023-08-17T08:28:36;101646.20;;;27.50;50.72
76598;BME280;65486;53.144;18.134;2023-08-17T08:31:06;101632.91;;;28.77;46.14
76598;BME280;65486;53.144;18.134;2023-08-17T08:33:35;101626.83;;;29.70;43.50
76598;BME280;65486;53.144;18.134;2023-08-17T08:36:03;101614.98;;;30.51;42.31
76598;BME280;65486;53.144;18.134;2023-08-17T08:38:32;101611.73;;;31.19;38.97
76598;BME280;65486;53.144;18.134;2023-08-17T08:40:59;101609.64;;;31.74;38.37
76598;BME280;65486;53.144;18.134;2023-08-17T08:43:26;101604.68;;;31.57;38.42
76598;BME280;65486;53.144;18.134;2023-08-17T08:46:01;101588.84;;;31.21;37.56
76598;BME280;65486;53.144;18.134;2023-08-17T08:48:29;101565.02;;;30.34;38.43
76598;BME280;65486;53.144;18.134;2023-08-17T08:51:00;101567.74;;;29.61;39.25
76598;BME280;65486;53.144;18.134;2023-08-17T08:54:00;101555.86;;;28.82;40.00
76598;BME280;65486;53.144;18.134;2023-08-17T08:56:31;101551.27;;;28.24;40.71
76598;BME280;65486;53.144;18.134;2023-08-17T08:59:01;101553.51;;;27.73;41.62
76598;BME280;65486;53.144;18.134;2023-08-17T09:01:34;101557.39;;;27.41;41.76
76598;BME280;65486;53.144;18.134;2023-08-17T09:04:02;101568.54;;;27.29;42.36
76598;BME280;65486;53.144;18.134;2023-08-17T09:06:29;101577.14;;;27.46;42.40
76598;BME280;65486;53.144;18.134;2023-08-17T09:08:58;101569.15;;;27.95;41.91
76598;BME280;65486;53.144;18.134;2023-08-17T09:11:25;101563.16;;;29.12;40.48
76598;BME280;65486;53.144;18.134;2023-08-17T09:13:53;101559.56;;;29.52;39.43
76598;BME280;65486;53.144;18.134;2023-08-17T09:16:19;101558.25;;;29.16;40.28
76598;BME280;65486;53.144;18.134;2023-08-17T09:18:47;101562.55;;;28.89;40.75
76598;BME280;65486;53.144;18.134;2023-08-17T09:21:23;101559.05;;;28.68;41.20
76598;BME280;65486;53.144;18.134;2023-08-17T09:23:55;101564.99;;;28.78;41.24
76598;BME280;65486;53.144;18.134;2023-08-17T09:26:24;101568.41;;;29.74;39.90
76598;BME280;65486;53.144;18.134;2023-08-17T09:28:52;101567.25;;;30.78;38.41
76598;BME280;65486;53.144;18.134;2023-08-17T09:31:25;101563.02;;;31.34;37.54
76598;BME280;65486;53.144;18.134;2023-08-17T09:33:52;101564.23;;;31.17;37.15
76598;BME280;65486;53.144;18.134;2023-08-17T09:36:22;101559.42;;;30.36;38.42
76598;BME280;65486;53.144;18.134;2023-08-17T09:38:49;101563.40;;;29.58;39.51
76598;BME280;65486;53.144;18.134;2023-08-17T09:41:19;101562.70;;;28.95;40.21
76598;BME280;65486;53.144;18.134;2023-08-17T09:43:47;101556.88;;;28.33;41.46
76598;BME280;65486;53.144;18.134;2023-08-17T09:46:15;101547.45;;;27.68;42.32
76598;BME280;65486;53.144;18.134;2023-08-17T09:48:47;101535.58;;;27.05;43.52
76598;BME280;65486;53.144;18.134;2023-08-17T09:51:16;101535.54;;;26.60;44.61
76598;BME280;65486;53.144;18.134;2023-08-17T09:53:51;101525.80;;;26.37;45.30
76598;BME280;65486;53.144;18.134;2023-08-17T09:56:21;101524.70;;;26.20;46.30
76598;BME280;65486;53.144;18.134;2023-08-17T09:58:50;101510.24;;;26.05;46.27
76598;BME280;65486;53.144;18.134;2023-08-17T10:01:22;101503.64;;;26.08;46.61
76598;BME280;65486;53.144;18.134;2023-08-17T10:03:54;101493.06;;;26.02;46.88
76598;BME280;65486;53.144;18.134;2023-08-17T10:06:24;101491.98;;;25.86;47.36
76598;BME280;65486;53.144;18.134;2023-08-17T10:08:57;101494.59;;;25.99;47.12
76598;BME280;65486;53.144;18.134;2023-08-17T10:11:24;101492.76;;;26.69;46.37
76598;BME280;65486;53.144;18.134;2023-08-17T10:13:59;101480.93;;;27.56;45.03
76598;BME280;65486;53.144;18.134;2023-08-17T10:16:57;101470.39;;;28.59;42.98
76598;BME280;65486;53.144;18.134;2023-08-17T10:22:12;101452.24;;;28.87;41.72
76598;BME280;65486;53.144;18.134;2023-08-17T10:24:44;101447.14;;;28.50;42.26
76598;BME280;65486;53.144;18.134;2023-08-17T10:27:11;101451.91;;;28.29;42.72
76598;BME280;65486;53.144;18.134;2023-08-17T10:29:43;101454.64;;;28.43;42.91
76598;BME280;65486;53.144;18.134;2023-08-17T10:32:11;101457.92;;;29.22;41.32
76598;BME280;65486;53.144;18.134;2023-08-17T10:34:41;101461.04;;;30.20;39.21
76598;BME280;65486;53.144;18.134;2023-08-17T10:37:18;101459.41;;;30.85;37.86
76598;BME280;65486;53.144;18.134;2023-08-17T10:39:48;101465.42;;;31.50;37.59
76598;BME280;65486;53.144;18.134;2023-08-17T10:42:31;101461.80;;;32.08;36.61
76598;BME280;65486;53.144;18.134;2023-08-17T10:45:01;101461.39;;;32.64;35.43
76598;BME280;65486;53.144;18.134;2023-08-17T10:47:31;101457.16;;;33.09;35.27
76598;BME280;65486;53.144;18.134;2023-08-17T10:52:54;101454.73;;;34.12;34.03
76598;BME280;65486;53.144;18.134;2023-08-17T10:55:38;101441.04;;;34.44;33.35
76598;BME280;65486;53.144;18.134;2023-08-17T10:58:08;101458.89;;;34.84;32.12
76598;BME280;65486;53.144;18.134;2023-08-17T11:00:36;101455.73;;;34.36;32.91
76598;BME280;65486;53.144;18.134;2023-08-17T11:03:10;101458.58;;;33.77;33.39
76598;BME280;65486;53.144;18.134;2023-08-17T11:05:52;101457.67;;;33.70;33.16
76598;BME280;65486;53.144;18.134;2023-08-17T11:08:50;101454.41;;;33.69;33.51
76598;BME280;65486;53.144;18.134;2023-08-17T11:11:23;101460.47;;;33.08;34.23
76598;BME280;65486;53.144;18.134;2023-08-17T11:13:52;101465.85;;;32.44;35.00
76598;BME280;65486;53.144;18.134;2023-08-17T11:16:19;101471.70;;;32.24;35.51
76598;BME280;65486;53.144;18.134;2023-08-17T11:18:47;101473.04;;;32.63;35.25
76598;BME280;65486;53.144;18.134;2023-08-17T11:21:19;101475.88;;;33.05;34.92
76598;BME280;65486;53.144;18.134;2023-08-17T11:23:47;101473.87;;;33.23;34.30
76598;BME280;65486;53.144;18.134;2023-08-17T11:26:18;101473.18;;;33.25;34.29
76598;BME280;65486;53.144;18.134;2023-08-17T11:28:47;101474.59;;;33.37;33.89
76598;BME280;65486;53.144;18.134;2023-08-17T11:31:15;101478.02;;;33.53;34.13
76598;BME280;65486;53.144;18.134;2023-08-17T11:33:41;101474.33;;;33.53;33.77
76598;BME280;65486;53.144;18.134;2023-08-17T11:36:10;101473.35;;;33.45;33.90
76598;BME280;65486;53.144;18.134;2023-08-17T11:38:39;101466.27;;;33.33;33.79
76598;BME280;65486;53.144;18.134;2023-08-17T11:41:06;101465.70;;;33.20;34.29
76598;BME280;65486;53.144;18.134;2023-08-17T11:43:43;101465.16;;;33.12;34.17
76598;BME280;65486;53.144;18.134;2023-08-17T11:46:11;101458.89;;;33.08;34.06
76598;BME280;65486;53.144;18.134;2023-08-17T11:48:40;101456.31;;;33.11;34.69
76598;BME280;65486;53.144;18.134;2023-08-17T11:51:09;101450.17;;;33.30;34.50
76598;BME280;65486;53.144;18.134;2023-08-17T11:53:38;101446.71;;;33.27;34.22
76598;BME280;65486;53.144;18.134;2023-08-17T11:56:07;101449.03;;;33.08;34.58
76598;BME280;65486;53.144;18.134;2023-08-17T11:58:43;101449.36;;;32.74;34.92
76598;BME280;65486;53.144;18.134;2023-08-17T12:01:15;101448.52;;;32.19;35.66
76598;BME280;65486;53.144;18.134;2023-08-17T12:03:45;101453.88;;;31.77;36.43
76598;BME280;65486;53.144;18.134;2023-08-17T12:06:13;101464.13;;;31.34;37.09
76598;BME280;65486;53.144;18.134;2023-08-17T12:08:56;101460.59;;;30.90;37.43
76598;BME280;65486;53.144;18.134;2023-08-17T12:11:29;101458.23;;;30.73;38.38
76598;BME280;65486;53.144;18.134;2023-08-17T12:13:56;101453.23;;;30.47;38.60
76598;BME280;65486;53.144;18.134;2023-08-17T12:16:24;101448.39;;;30.19;39.26
76598;BME280;65486;53.144;18.134;2023-08-17T12:18:52;101453.11;;;29.98;39.66
76598;BME280;65486;53.144;18.134;2023-08-17T12:21:21;101455.59;;;29.80;40.39
76598;BME280;65486;53.144;18.134;2023-08-17T12:23:51;101453.41;;;29.73;40.94
76598;BME280;65486;53.144;18.134;2023-08-17T12:26:20;101456.64;;;29.62;41.52
76598;BME280;65486;53.144;18.134;2023-08-17T12:28:46;101451.48;;;29.42;41.47
76598;BME280;65486;53.144;18.134;2023-08-17T12:31:21;101464.49;;;29.33;42.38
76598;BME280;65486;53.144;18.134;2023-08-17T12:33:47;101462.05;;;29.15;42.13
76598;BME280;65486;53.144;18.134;2023-08-17T12:36:15;101458.99;;;29.04;42.55
76598;BME280;65486;53.144;18.134;2023-08-17T12:38:42;101459.64;;;29.06;43.01
76598;BME280;65486;53.144;18.134;2023-08-17T12:41:11;101460.40;;;28.98;42.91
76598;BME280;65486;53.144;18.134;2023-08-17T12:43:40;101452.34;;;28.86;43.25
76598;BME280;65486;53.144;18.134;2023-08-17T12:46:07;101451.36;;;28.79;43.59
76598;BME280;65486;53.144;18.134;2023-08-17T12:48:34;101451.36;;;28.73;43.88
76598;BME280;65486;53.144;18.134;2023-08-17T12:51:02;101450.91;;;28.66;43.86
76598;BME280;65486;53.144;18.134;2023-08-17T12:53:33;101443.11;;;28.59;44.07
76598;BME280;65486;53.144;18.134;2023-08-17T12:56:01;101441.73;;;28.55;44.52